sensor_id;sensor_type;location;lat;lon;timestamp;P1;durP1;ratioP1;P2;durP2;ratioP2
75603;SDS011;64187;51.010;13.792;2024-01-15T00:02:27;7.65;;;3.15;;
75603;SDS011;64187;51.010;13.792;2024-01-15T00:07:26;8.15;;;3.63;;
75603;SDS011;64187;51.010;13.792;2024-01-15T00:12:25;9.73;;;4.13;;
75603;SDS011;64187;51.010;13.792;2024-01-15T00:17:24;10.02;;;4.00;;
75603;SDS011;64187;51.010;13.792;2024-01-15T00:22:25;10.75;;;4.30;;
75603;SDS011;64187;51.010;13.792;2024-01-15T00:27:25;8.77;;;4.22;;
75603;SDS011;64187;51.010;13.792;2024-01-15T00:32:24;7.30;;;3.30;;
75603;SDS011;64187;51.010;13.792;2024-01-15T00:37:23;8.90;;;4.00;;
75603;SDS011;64187;51.010;13.792;2024-01-15T00:42:22;9.10;;;3.85;;
75603;SDS011;64187;51.010;13.792;2024-01-15T00:47:21;5.78;;;3.13;;
75603;SDS011;64187;51.010;13.792;2024-01-15T00:52:20;5.78;;;3.78;;
75603;SDS011;64187;51.010;13.792;2024-01-15T00:57:19;6.00;;;2.97;;
75603;SDS011;64187;51.010;13.792;2024-01-15T01:02:18;9.25;;;4.78;;
75603;SDS011;64187;51.010;13.792;2024-01-15T01:07:17;11.40;;;4.65;;
75603;SDS011;64187;51.010;13.792;2024-01-15T01:12:15;8.30;;;3.90;;
75603;SDS011;64187;51.010;13.792;2024-01-15T01:17:15;8.85;;;3.50;;
75603;SDS011;64187;51.010;13.792;2024-01-15T01:22:14;9.50;;;3.88;;
75603;SDS011;64187;51.010;13.792;2024-01-15T01:27:12;8.48;;;3.38;;
75603;SDS011;64187;51.010;13.792;2024-01-15T01:32:11;8.57;;;3.72;;
75603;SDS011;64187;51.010;13.792;2024-01-15T01:37:10;10.52;;;4.28;;
75603;SDS011;64187;51.010;13.792;2024-01-15T01:42:12;8.05;;;3.47;;
75603;SDS011;64187;51.010;13.792;2024-01-15T01:47:11;9.73;;;4.25;;
75603;SDS011;64187;51.010;13.792;2024-01-15T01:52:10;7.47;;;3.50;;
75603;SDS011;64187;51.010;13.792;2024-01-15T01:57:10;10.27;;;3.75;;
75603;SDS011;64187;51.010;13.792;2024-01-15T02:02:10;10.00;;;4.30;;
75603;SDS011;64187;51.010;13.792;2024-01-15T02:07:10;8.68;;;4.40;;
75603;SDS011;64187;51.010;13.792;2024-01-15T02:12:10;10.27;;;4.32;;
75603;SDS011;64187;51.010;13.792;2024-01-15T02:17:09;8.95;;;3.97;;
75603;SDS011;64187;51.010;13.792;2024-01-15T02:22:08;6.45;;;3.03;;
75603;SDS011;64187;51.010;13.792;2024-01-15T02:27:07;9.35;;;4.70;;
75603;SDS011;64187;51.010;13.792;2024-01-15T02:32:06;10.63;;;4.47;;
75603;SDS011;64187;51.010;13.792;2024-01-15T02:37:07;7.68;;;4.28;;
75603;SDS011;64187;51.010;13.792;2024-01-15T02:42:06;10.10;;;4.55;;
75603;SDS011;64187;51.010;13.792;2024-01-15T02:47:05;11.35;;;5.07;;
75603;SDS011;64187;51.010;13.792;2024-01-15T02:52:03;8.70;;;4.55;;
75603;SDS011;64187;51.010;13.792;2024-01-15T02:57:02;8.82;;;4.60;;
75603;SDS011;64187;51.010;13.792;2024-01-15T03:02:01;8.60;;;4.05;;
75603;SDS011;64187;51.010;13.792;2024-01-15T03:07:00;11.18;;;4.25;;
75603;SDS011;64187;51.010;13.792;2024-01-15T03:11:59;9.80;;;4.75;;
75603;SDS011;64187;51.010;13.792;2024-01-15T03:16:58;11.35;;;4.90;;
75603;SDS011;64187;51.010;13.792;2024-01-15T03:21:57;9.63;;;5.15;;
75603;SDS011;64187;51.010;13.792;2024-01-15T03:26:56;13.70;;;4.45;;
75603;SDS011;64187;51.010;13.792;2024-01-15T03:31:55;8.57;;;4.25;;
75603;SDS011;64187;51.010;13.792;2024-01-15T03:36:54;10.88;;;5.03;;
75603;SDS011;64187;51.010;13.792;2024-01-15T03:41:53;10.15;;;4.65;;
75603;SDS011;64187;51.010;13.792;2024-01-15T03:46:52;11.10;;;4.82;;
75603;SDS011;64187;51.010;13.792;2024-01-15T03:51:50;11.05;;;4.93;;
75603;SDS011;64187;51.010;13.792;2024-01-15T03:56:49;13.27;;;5.50;;
75603;SDS011;64187;51.010;13.792;2024-01-15T04:01:49;11.38;;;5.45;;
75603;SDS011;64187;51.010;13.792;2024-01-15T04:06:49;16.88;;;6.47;;
75603;SDS011;64187;51.010;13.792;2024-01-15T04:11:48;10.98;;;4.93;;
75603;SDS011;64187;51.010;13.792;2024-01-15T04:16:47;13.35;;;5.15;;
75603;SDS011;64187;51.010;13.792;2024-01-15T04:21:46;11.57;;;5.07;;
75603;SDS011;64187;51.010;13.792;2024-01-15T04:26:45;12.77;;;5.05;;
75603;SDS011;64187;51.010;13.792;2024-01-15T04:31:44;13.35;;;5.85;;
75603;SDS011;64187;51.010;13.792;2024-01-15T04:36:43;9.68;;;4.43;;
75603;SDS011;64187;51.010;13.792;2024-01-15T04:41:42;12.10;;;4.53;;
75603;SDS011;64187;51.010;13.792;2024-01-15T04:46:41;10.80;;;4.70;;
75603;SDS011;64187;51.010;13.792;2024-01-15T04:51:42;9.35;;;4.05;;
75603;SDS011;64187;51.010;13.792;2024-01-15T04:56:41;14.10;;;5.40;;
75603;SDS011;64187;51.010;13.792;2024-01-15T05:01:39;12.23;;;6.10;;
75603;SDS011;64187;51.010;13.792;2024-01-15T05:06:39;11.25;;;5.60;;
75603;SDS011;64187;51.010;13.792;2024-01-15T05:11:37;13.10;;;4.90;;
75603;SDS011;64187;51.010;13.792;2024-01-15T05:16:39;9.43;;;4.35;;
75603;SDS011;64187;51.010;13.792;2024-01-15T05:21:44;16.67;;;4.82;;
75603;SDS011;64187;51.010;13.792;2024-01-15T05:26:43;13.38;;;5.22;;
75603;SDS011;64187;51.010;13.792;2024-01-15T05:31:42;8.90;;;3.80;;
75603;SDS011;64187;51.010;13.792;2024-01-15T05:36:42;11.32;;;5.15;;
75603;SDS011;64187;51.010;13.792;2024-01-15T05:41:41;10.35;;;4.57;;
75603;SDS011;64187;51.010;13.792;2024-01-15T05:46:39;13.38;;;5.53;;
75603;SDS011;64187;51.010;13.792;2024-01-15T05:51:38;12.18;;;5.78;;
75603;SDS011;64187;51.010;13.792;2024-01-15T05:56:37;12.30;;;4.72;;
75603;SDS011;64187;51.010;13.792;2024-01-15T06:01:36;13.00;;;4.97;;
75603;SDS011;64187;51.010;13.792;2024-01-15T06:06:35;9.05;;;3.95;;
75603;SDS011;64187;51.010;13.792;2024-01-15T06:11:34;13.88;;;6.15;;
75603;SDS011;64187;51.010;13.792;2024-01-15T06:16:33;12.50;;;4.72;;
75603;SDS011;64187;51.010;13.792;2024-01-15T06:21:32;12.80;;;4.55;;
75603;SDS011;64187;51.010;13.792;2024-01-15T06:26:31;12.70;;;5.28;;
75603;SDS011;64187;51.010;13.792;2024-01-15T06:31:30;9.55;;;4.40;;
75603;SDS011;64187;51.010;13.792;2024-01-15T06:36:29;10.65;;;4.55;;
75603;SDS011;64187;51.010;13.792;2024-01-15T06:41:28;13.48;;;5.45;;
75603;SDS011;64187;51.010;13.792;2024-01-15T06:46:27;9.77;;;5.47;;
75603;SDS011;64187;51.010;13.792;2024-01-15T06:51:25;8.13;;;4.20;;
75603;SDS011;64187;51.010;13.792;2024-01-15T06:56:24;14.10;;;4.30;;
75603;SDS011;64187;51.010;13.792;2024-01-15T07:01:23;14.52;;;5.03;;
75603;SDS011;64187;51.010;13.792;2024-01-15T07:06:22;9.27;;;3.90;;
75603;SDS011;64187;51.010;13.792;2024-01-15T07:11:21;8.93;;;3.78;;
75603;SDS011;64187;51.010;13.792;2024-01-15T07:16:20;9.38;;;3.45;;
75603;SDS011;64187;51.010;13.792;2024-01-15T07:21:35;11.68;;;3.97;;
75603;SDS011;64187;51.010;13.792;2024-01-15T07:26:34;9.73;;;3.03;;
75603;SDS011;64187;51.010;13.792;2024-01-15T07:31:32;9.52;;;3.42;;
75603;SDS011;64187;51.010;13.792;2024-01-15T07:36:31;6.50;;;2.55;;
75603;SDS011;64187;51.010;13.792;2024-01-15T07:41:30;7.10;;;3.33;;
75603;SDS011;64187;51.010;13.792;2024-01-15T07:46:29;13.45;;;4.60;;
75603;SDS011;64187;51.010;13.792;2024-01-15T07:51:28;6.20;;;2.83;;
75603;SDS011;64187;51.010;13.792;2024-01-15T07:56:27;7.43;;;3.50;;
75603;SDS011;64187;51.010;13.792;2024-01-15T08:01:26;9.75;;;3.83;;
75603;SDS011;64187;51.010;13.792;2024-01-15T08:06:25;8.68;;;3.78;;
75603;SDS011;64187;51.010;13.792;2024-01-15T08:11:25;8.65;;;4.05;;
75603;SDS011;64187;51.010;13.792;2024-01-15T08:16:24;9.35;;;4.55;;
75603;SDS011;64187;51.010;13.792;2024-01-15T08:21:23;10.48;;;4.03;;
75603;SDS011;64187;51.010;13.792;2024-01-15T08:26:22;8.80;;;3.42;;
75603;SDS011;64187;51.010;13.792;2024-01-15T08:31:21;8.38;;;3.38;;
75603;SDS011;64187;51.010;13.792;2024-01-15T08:36:20;7.28;;;3.58;;
75603;SDS011;64187;51.010;13.792;2024-01-15T08:41:20;8.57;;;3.50;;
75603;SDS011;64187;51.010;13.792;2024-01-15T08:46:19;6.20;;;3.15;;
75603;SDS011;64187;51.010;13.792;2024-01-15T08:51:18;8.50;;;3.08;;
75603;SDS011;64187;51.010;13.792;2024-01-15T08:56:19;9.88;;;3.72;;
75603;SDS011;64187;51.010;13.792;2024-01-15T09:01:19;9.20;;;3.75;;
75603;SDS011;64187;51.010;13.792;2024-01-15T09:06:18;7.60;;;2.75;;
75603;SDS011;64187;51.010;13.792;2024-01-15T09:11:17;4.85;;;2.53;;
75603;SDS011;64187;51.010;13.792;2024-01-15T09:16:16;8.60;;;3.03;;
75603;SDS011;64187;51.010;13.792;2024-01-15T09:21:16;10.18;;;3.45;;
75603;SDS011;64187;51.010;13.792;2024-01-15T09:26:15;7.50;;;2.83;;
75603;SDS011;64187;51.010;13.792;2024-01-15T09:31:13;6.00;;;2.75;;
75603;SDS011;64187;51.010;13.792;2024-01-15T09:36:13;5.95;;;2.00;;
75603;SDS011;64187;51.010;13.792;2024-01-15T09:41:12;6.60;;;2.95;;
75603;SDS011;64187;51.010;13.792;2024-01-15T09:46:11;7.90;;;2.58;;
75603;SDS011;64187;51.010;13.792;2024-01-15T09:51:10;4.53;;;2.40;;
75603;SDS011;64187;51.010;13.792;2024-01-15T09:56:09;7.53;;;2.58;;
75603;SDS011;64187;51.010;13.792;2024-01-15T10:01:09;4.35;;;2.08;;
75603;SDS011;64187;51.010;13.792;2024-01-15T10:06:09;7.18;;;2.58;;
75603;SDS011;64187;51.010;13.792;2024-01-15T10:11:15;4.47;;;1.83;;
75603;SDS011;64187;51.010;13.792;2024-01-15T10:16:15;6.50;;;2.17;;
75603;SDS011;64187;51.010;13.792;2024-01-15T10:21:14;6.45;;;2.45;;
75603;SDS011;64187;51.010;13.792;2024-01-15T10:26:14;7.35;;;2.58;;
75603;SDS011;64187;51.010;13.792;2024-01-15T10:31:16;6.90;;;2.58;;
75603;SDS011;64187;51.010;13.792;2024-01-15T10:36:18;7.03;;;2.80;;
75603;SDS011;64187;51.010;13.792;2024-01-15T10:41:17;5.32;;;2.03;;
75603;SDS011;64187;51.010;13.792;2024-01-15T10:46:16;4.82;;;2.70;;
75603;SDS011;64187;51.010;13.792;2024-01-15T10:51:15;8.18;;;3.38;;
75603;SDS011;64187;51.010;13.792;2024-01-15T10:56:15;2.90;;;1.77;;
75603;SDS011;64187;51.010;13.792;2024-01-15T11:01:14;6.15;;;2.17;;
75603;SDS011;64187;51.010;13.792;2024-01-15T11:06:18;5.00;;;2.30;;
75603;SDS011;64187;51.010;13.792;2024-01-15T11:11:21;6.90;;;2.63;;
75603;SDS011;64187;51.010;13.792;2024-01-15T11:16:20;7.15;;;2.97;;
75603;SDS011;64187;51.010;13.792;2024-01-15T11:21:19;7.18;;;2.63;;
75603;SDS011;64187;51.010;13.792;2024-01-15T11:41:48;9.05;;;2.85;;
75603;SDS011;64187;51.010;13.792;2024-01-15T11:47:09;5.30;;;2.97;;
75603;SDS011;64187;51.010;13.792;2024-01-15T11:52:17;6.60;;;2.67;;
75603;SDS011;64187;51.010;13.792;2024-01-15T11:57:19;4.82;;;2.28;;
75603;SDS011;64187;51.010;13.792;2024-01-15T12:02:24;6.75;;;2.65;;
75603;SDS011;64187;51.010;13.792;2024-01-15T12:07:23;4.75;;;2.80;;
75603;SDS011;64187;51.010;13.792;2024-01-15T12:12:35;6.75;;;3.50;;
75603;SDS011;64187;51.010;13.792;2024-01-15T12:17:43;5.20;;;2.33;;
75603;SDS011;64187;51.010;13.792;2024-01-15T12:22:42;4.88;;;2.20;;
75603;SDS011;64187;51.010;13.792;2024-01-15T12:27:58;8.32;;;2.85;;
75603;SDS011;64187;51.010;13.792;2024-01-15T12:33:00;6.20;;;2.72;;
75603;SDS011;64187;51.010;13.792;2024-01-15T12:38:02;7.47;;;3.20;;
75603;SDS011;64187;51.010;13.792;2024-01-15T12:43:02;6.20;;;2.95;;
75603;SDS011;64187;51.010;13.792;2024-01-15T12:48:01;6.15;;;3.22;;
75603;SDS011;64187;51.010;13.792;2024-01-15T12:53:02;6.03;;;3.10;;
75603;SDS011;64187;51.010;13.792;2024-01-15T12:58:01;7.68;;;3.22;;
75603;SDS011;64187;51.010;13.792;2024-01-15T13:03:01;6.50;;;2.83;;
75603;SDS011;64187;51.010;13.792;2024-01-15T13:08:02;7.85;;;2.85;;
75603;SDS011;64187;51.010;13.792;2024-01-15T13:13:02;7.82;;;3.15;;
75603;SDS011;64187;51.010;13.792;2024-01-15T13:18:01;9.77;;;2.75;;
75603;SDS011;64187;51.010;13.792;2024-01-15T13:23:00;7.38;;;2.85;;
75603;SDS011;64187;51.010;13.792;2024-01-15T13:28:02;7.35;;;3.60;;
75603;SDS011;64187;51.010;13.792;2024-01-15T13:33:03;5.45;;;2.55;;
75603;SDS011;64187;51.010;13.792;2024-01-15T13:38:03;7.80;;;3.40;;
75603;SDS011;64187;51.010;13.792;2024-01-15T13:43:02;4.88;;;2.30;;
75603;SDS011;64187;51.010;13.792;2024-01-15T13:48:05;7.25;;;3.30;;
75603;SDS011;64187;51.010;13.792;2024-01-15T13:53:04;6.53;;;3.13;;
75603;SDS011;64187;51.010;13.792;2024-01-15T13:58:03;7.68;;;3.75;;
75603;SDS011;64187;51.010;13.792;2024-01-15T14:03:04;12.57;;;3.58;;
75603;SDS011;64187;51.010;13.792;2024-01-15T14:08:03;4.55;;;2.33;;
75603;SDS011;64187;51.010;13.792;2024-01-15T14:13:03;7.50;;;3.58;;
75603;SDS011;64187;51.010;13.792;2024-01-15T14:18:02;8.00;;;3.90;;
75603;SDS011;64187;51.010;13.792;2024-01-15T14:23:01;8.18;;;3.65;;
75603;SDS011;64187;51.010;13.792;2024-01-15T14:28:00;9.77;;;4.35;;
75603;SDS011;64187;51.010;13.792;2024-01-15T14:32:59;11.40;;;3.97;;
75603;SDS011;64187;51.010;13.792;2024-01-15T14:37:58;8.95;;;3.38;;
75603;SDS011;64187;51.010;13.792;2024-01-15T14:42:58;12.18;;;3.90;;
75603;SDS011;64187;51.010;13.792;2024-01-15T14:47:56;11.30;;;4.60;;
75603;SDS011;64187;51.010;13.792;2024-01-15T14:52:57;9.00;;;3.55;;
75603;SDS011;64187;51.010;13.792;2024-01-15T14:57:56;7.13;;;4.00;;
75603;SDS011;64187;51.010;13.792;2024-01-15T15:02:55;5.32;;;3.25;;
75603;SDS011;64187;51.010;13.792;2024-01-15T15:07:54;8.27;;;3.55;;
75603;SDS011;64187;51.010;13.792;2024-01-15T15:12:52;9.63;;;3.92;;
75603;SDS011;64187;51.010;13.792;2024-01-15T15:17:51;7.75;;;3.40;;
75603;SDS011;64187;51.010;13.792;2024-01-15T15:22:50;8.57;;;3.72;;
75603;SDS011;64187;51.010;13.792;2024-01-15T15:27:53;10.38;;;3.20;;
75603;SDS011;64187;51.010;13.792;2024-01-15T15:32:52;9.52;;;3.38;;
75603;SDS011;64187;51.010;13.792;2024-01-15T15:37:54;6.85;;;3.53;;
75603;SDS011;64187;51.010;13.792;2024-01-15T15:42:53;7.72;;;3.13;;
75603;SDS011;64187;51.010;13.792;2024-01-15T15:47:52;10.68;;;3.65;;
75603;SDS011;64187;51.010;13.792;2024-01-15T15:52:52;7.35;;;3.65;;
75603;SDS011;64187;51.010;13.792;2024-01-15T15:57:51;10.48;;;4.10;;
75603;SDS011;64187;51.010;13.792;2024-01-15T16:02:50;7.10;;;3.50;;
75603;SDS011;64187;51.010;13.792;2024-01-15T16:07:49;8.73;;;4.13;;
75603;SDS011;64187;51.010;13.792;2024-01-15T16:12:48;6.38;;;3.40;;
75603;SDS011;64187;51.010;13.792;2024-01-15T16:17:50;6.88;;;3.47;;
75603;SDS011;64187;51.010;13.792;2024-01-15T16:23:10;7.82;;;3.75;;
75603;SDS011;64187;51.010;13.792;2024-01-15T16:28:29;9.55;;;4.03;;
75603;SDS011;64187;51.010;13.792;2024-01-15T16:33:41;7.80;;;3.60;;
75603;SDS011;64187;51.010;13.792;2024-01-15T16:38:45;9.68;;;4.25;;
75603;SDS011;64187;51.010;13.792;2024-01-15T16:43:43;9.57;;;4.10;;
75603;SDS011;64187;51.010;13.792;2024-01-15T16:48:42;10.52;;;4.57;;
75603;SDS011;64187;51.010;13.792;2024-01-15T16:53:41;8.27;;;4.05;;
75603;SDS011;64187;51.010;13.792;2024-01-15T16:58:40;9.10;;;4.93;;
75603;SDS011;64187;51.010;13.792;2024-01-15T17:03:39;11.02;;;5.35;;
75603;SDS011;64187;51.010;13.792;2024-01-15T17:08:38;11.35;;;4.85;;
75603;SDS011;64187;51.010;13.792;2024-01-15T17:13:37;12.95;;;4.82;;
75603;SDS011;64187;51.010;13.792;2024-01-15T17:18:36;10.63;;;4.78;;
75603;SDS011;64187;51.010;13.792;2024-01-15T17:23:35;6.93;;;4.10;;
75603;SDS011;64187;51.010;13.792;2024-01-15T17:28:34;9.50;;;4.38;;
75603;SDS011;64187;51.010;13.792;2024-01-15T17:33:33;7.35;;;3.60;;
75603;SDS011;64187;51.010;13.792;2024-01-15T17:38:32;5.38;;;3.15;;
75603;SDS011;64187;51.010;13.792;2024-01-15T17:43:34;7.72;;;3.75;;
75603;SDS011;64187;51.010;13.792;2024-01-15T17:48:35;7.45;;;3.38;;
75603;SDS011;64187;51.010;13.792;2024-01-15T17:53:34;5.90;;;3.08;;
75603;SDS011;64187;51.010;13.792;2024-01-15T17:58:33;6.30;;;3.47;;
75603;SDS011;64187;51.010;13.792;2024-01-15T18:03:32;6.82;;;3.08;;
75603;SDS011;64187;51.010;13.792;2024-01-15T18:08:32;7.18;;;3.70;;
75603;SDS011;64187;51.010;13.792;2024-01-15T18:13:31;8.30;;;4.15;;
75603;SDS011;64187;51.010;13.792;2024-01-15T18:18:30;6.70;;;3.25;;
75603;SDS011;64187;51.010;13.792;2024-01-15T18:23:29;10.40;;;3.90;;
75603;SDS011;64187;51.010;13.792;2024-01-15T18:28:29;8.15;;;4.25;;
75603;SDS011;64187;51.010;13.792;2024-01-15T18:33:27;7.15;;;3.40;;
75603;SDS011;64187;51.010;13.792;2024-01-15T18:38:27;6.47;;;3.70;;
75603;SDS011;64187;51.010;13.792;2024-01-15T18:43:26;7.10;;;3.60;;
75603;SDS011;64187;51.010;13.792;2024-01-15T18:48:26;8.32;;;4.13;;
75603;SDS011;64187;51.010;13.792;2024-01-15T18:53:26;8.90;;;4.28;;
75603;SDS011;64187;51.010;13.792;2024-01-15T18:58:25;9.27;;;4.20;;
75603;SDS011;64187;51.010;13.792;2024-01-15T19:03:24;9.45;;;3.92;;
75603;SDS011;64187;51.010;13.792;2024-01-15T19:08:23;8.65;;;3.75;;
75603;SDS011;64187;51.010;13.792;2024-01-15T19:13:22;8.02;;;4.60;;
75603;SDS011;64187;51.010;13.792;2024-01-15T19:18:21;7.60;;;4.45;;
75603;SDS011;64187;51.010;13.792;2024-01-15T19:23:21;6.68;;;3.45;;
75603;SDS011;64187;51.010;13.792;2024-01-15T19:28:20;6.80;;;3.70;;
75603;SDS011;64187;51.010;13.792;2024-01-15T19:33:19;8.02;;;3.33;;
75603;SDS011;64187;51.010;13.792;2024-01-15T19:38:18;7.57;;;3.05;;
75603;SDS011;64187;51.010;13.792;2024-01-15T19:43:17;5.47;;;3.00;;
75603;SDS011;64187;51.010;13.792;2024-01-15T19:48:15;8.68;;;4.15;;
75603;SDS011;64187;51.010;13.792;2024-01-15T19:53:16;5.53;;;3.08;;
75603;SDS011;64187;51.010;13.792;2024-01-15T19:58:15;6.43;;;3.67;;
75603;SDS011;64187;51.010;13.792;2024-01-15T20:03:14;7.43;;;3.47;;
75603;SDS011;64187;51.010;13.792;2024-01-15T20:08:13;6.43;;;3.17;;
75603;SDS011;64187;51.010;13.792;2024-01-15T20:13:12;5.63;;;2.08;;
75603;SDS011;64187;51.010;13.792;2024-01-15T20:18:11;6.63;;;3.13;;
75603;SDS011;64187;51.010;13.792;2024-01-15T20:23:10;5.53;;;2.60;;
75603;SDS011;64187;51.010;13.792;2024-01-15T20:28:09;4.47;;;2.50;;
75603;SDS011;64187;51.010;13.792;2024-01-15T20:33:09;3.92;;;1.92;;
75603;SDS011;64187;51.010;13.792;2024-01-15T20:38:08;5.20;;;2.40;;
75603;SDS011;64187;51.010;13.792;2024-01-15T20:43:06;7.22;;;3.22;;
75603;SDS011;64187;51.010;13.792;2024-01-15T20:48:06;2.78;;;1.70;;
75603;SDS011;64187;51.010;13.792;2024-01-15T20:53:05;5.32;;;2.17;;
75603;SDS011;64187;51.010;13.792;2024-01-15T20:58:06;2.85;;;1.88;;
75603;SDS011;64187;51.010;13.792;2024-01-15T21:03:06;4.85;;;2.10;;
75603;SDS011;64187;51.010;13.792;2024-01-15T21:08:05;4.32;;;2.30;;
75603;SDS011;64187;51.010;13.792;2024-01-15T21:13:04;2.28;;;1.52;;
75603;SDS011;64187;51.010;13.792;2024-01-15T21:18:04;3.03;;;1.80;;
75603;SDS011;64187;51.010;13.792;2024-01-15T21:23:04;3.65;;;2.25;;
75603;SDS011;64187;51.010;13.792;2024-01-15T21:28:03;3.42;;;1.90;;
75603;SDS011;64187;51.010;13.792;2024-01-15T21:33:02;4.55;;;2.28;;
75603;SDS011;64187;51.010;13.792;2024-01-15T21:38:06;2.90;;;2.08;;
75603;SDS011;64187;51.010;13.792;2024-01-15T21:43:05;1.63;;;1.10;;
75603;SDS011;64187;51.010;13.792;2024-01-15T21:48:04;2.50;;;1.50;;
75603;SDS011;64187;51.010;13.792;2024-01-15T21:53:03;5.97;;;1.85;;
75603;SDS011;64187;51.010;13.792;2024-01-15T21:58:03;2.15;;;1.02;;
75603;SDS011;64187;51.010;13.792;2024-01-15T22:03:02;4.32;;;1.70;;
75603;SDS011;64187;51.010;13.792;2024-01-15T22:08:01;1.83;;;1.20;;
75603;SDS011;64187;51.010;13.792;2024-01-15T22:13:00;1.85;;;1.10;;
75603;SDS011;64187;51.010;13.792;2024-01-15T22:17:58;2.55;;;1.40;;
75603;SDS011;64187;51.010;13.792;2024-01-15T22:22:58;3.42;;;1.58;;
75603;SDS011;64187;51.010;13.792;2024-01-15T22:27:57;3.90;;;1.40;;
75603;SDS011;64187;51.010;13.792;2024-01-15T22:32:56;2.08;;;0.93;;
75603;SDS011;64187;51.010;13.792;2024-01-15T22:37:55;1.35;;;1.00;;
75603;SDS011;64187;51.010;13.792;2024-01-15T22:42:54;1.65;;;1.13;;
75603;SDS011;64187;51.010;13.792;2024-01-15T22:47:52;3.03;;;1.67;;
75603;SDS011;64187;51.010;13.792;2024-01-15T22:52:52;2.20;;;1.65;;
75603;SDS011;64187;51.010;13.792;2024-01-15T22:57:50;2.78;;;1.45;;
75603;SDS011;64187;51.010;13.792;2024-01-15T23:02:50;6.07;;;1.70;;
75603;SDS011;64187;51.010;13.792;2024-01-15T23:07:52;3.08;;;1.08;;
75603;SDS011;64187;51.010;13.792;2024-01-15T23:12:58;4.55;;;1.40;;
75603;SDS011;64187;51.010;13.792;2024-01-15T23:17:57;6.43;;;1.23;;
75603;SDS011;64187;51.010;13.792;2024-01-15T23:22:57;1.73;;;0.80;;
75603;SDS011;64187;51.010;13.792;2024-01-15T23:27:56;6.00;;;1.10;;
75603;SDS011;64187;51.010;13.792;2024-01-15T23:32:54;2.92;;;0.50;;
75603;SDS011;64187;51.010;13.792;2024-01-15T23:37:54;8.52;;;2.25;;
75603;SDS011;64187;51.010;13.792;2024-01-15T23:42:53;2.75;;;1.05;;
75603;SDS011;64187;51.010;13.792;2024-01-15T23:47:52;3.38;;;0.82;;
75603;SDS011;64187;51.010;13.792;2024-01-15T23:52:51;1.42;;;0.43;;
75603;SDS011;64187;51.010;13.792;2024-01-15T23:57:50;1.88;;;0.73;;
